sensor_id;sensor_type;location;lat;lon;timestamp;noise_LAeq;noise_LA_min;noise_LA_max;noise_LA01;noise_LA95
71028;Laerm;61353;52.260;4.572;2022-11-21T00:00:07;34.06;31.63;39.39;;
71028;Laerm;61353;52.260;4.572;2022-11-21T00:00:18;36.52;32.14;41.09;;
71028;Laerm;61353;52.260;4.572;2022-11-21T00:00:29;41.17;34.01;53.02;;
71028;Laerm;61353;52.260;4.572;2022-11-21T00:00:42;36.99;33.46;41.93;;
71028;Laerm;61353;52.260;4.572;2022-11-21T00:00:54;35.40;31.93;43.31;;
71028;Laerm;61353;52.260;4.572;2022-11-21T00:01:21;34.90;31.80;37.93;;
71028;Laerm;61353;52.260;4.572;2022-11-21T00:01:32;34.35;31.17;40.83;;
71028;Laerm;61353;52.260;4.572;2022-11-21T00:01:42;32.70;30.69;38.24;;
71028;Laerm;61353;52.260;4.572;2022-11-21T00:01:55;32.67;30.26;43.82;;
71028;Laerm;61353;52.260;4.572;2022-11-21T00:02:06;32.94;30.70;48.45;;
71028;Laerm;61353;52.260;4.572;2022-11-21T00:02:16;31.87;30.46;35.51;;
71028;Laerm;61353;52.260;4.572;2022-11-21T00:02:29;31.95;30.11;41.51;;
71028;Laerm;61353;52.260;4.572;2022-11-21T00:02:39;31.94;30.09;41.39;;
71028;Laerm;61353;52.260;4.572;2022-11-21T00:02:51;31.70;29.98;38.05;;
71028;Laerm;61353;52.260;4.572;2022-11-21T00:03:04;31.79;30.08;35.99;;
71028;Laerm;61353;52.260;4.572;2022-11-21T00:03:15;31.75;29.82;35.99;;
71028;Laerm;61353;52.260;4.572;2022-11-21T00:03:25;31.32;29.60;36.90;;
71028;Laerm;61353;52.260;4.572;2022-11-21T00:03:35;31.06;29.61;34.68;;
71028;Laerm;61353;52.260;4.572;2022-11-21T00:03:46;31.38;29.48;38.29;;
71028;Laerm;61353;52.260;4.572;2022-11-21T00:03:56;31.26;29.48;34.51;;
71028;Laerm;61353;52.260;4.572;2022-11-21T00:04:07;31.62;29.39;42.90;;
71028;Laerm;61353;52.260;4.572;2022-11-21T00:04:17;31.31;29.13;43.13;;
71028;Laerm;61353;52.260;4.572;2022-11-21T00:04:27;30.86;29.30;40.52;;
71028;Laerm;61353;52.260;4.572;2022-11-21T00:04:37;30.97;29.31;39.12;;
71028;Laerm;61353;52.260;4.572;2022-11-21T00:04:48;31.40;29.42;38.68;;
71028;Laerm;61353;52.260;4.572;2022-11-21T00:04:58;32.11;29.55;36.99;;
71028;Laerm;61353;52.260;4.572;2022-11-21T00:05:08;31.87;29.86;40.37;;
71028;Laerm;61353;52.260;4.572;2022-11-21T00:05:18;31.97;30.01;39.08;;
71028;Laerm;61353;52.260;4.572;2022-11-21T00:05:29;31.30;29.74;34.98;;
71028;Laerm;61353;52.260;4.572;2022-11-21T00:05:41;32.26;30.21;36.07;;
71028;Laerm;61353;52.260;4.572;2022-11-21T00:05:51;32.37;29.76;38.39;;
71028;Laerm;61353;52.260;4.572;2022-11-21T00:06:01;31.85;29.69;38.71;;
71028;Laerm;61353;52.260;4.572;2022-11-21T00:06:12;32.05;29.90;43.70;;
71028;Laerm;61353;52.260;4.572;2022-11-21T00:06:22;33.15;30.85;36.50;;
71028;Laerm;61353;52.260;4.572;2022-11-21T00:06:32;32.12;29.88;36.45;;
71028;Laerm;61353;52.260;4.572;2022-11-21T00:06:43;31.37;29.78;37.01;;
71028;Laerm;61353;52.260;4.572;2022-11-21T00:06:53;31.95;29.82;39.18;;
71028;Laerm;61353;52.260;4.572;2022-11-21T00:07:03;31.86;30.46;37.05;;
71028;Laerm;61353;52.260;4.572;2022-11-21T00:07:13;31.91;29.90;36.51;;
71028;Laerm;61353;52.260;4.572;2022-11-21T00:07:27;31.51;29.67;37.84;;
71028;Laerm;61353;52.260;4.572;2022-11-21T00:07:37;31.60;29.91;40.11;;
71028;Laerm;61353;52.260;4.572;2022-11-21T00:07:47;31.03;29.26;35.11;;
71028;Laerm;61353;52.260;4.572;2022-11-21T00:07:58;31.04;29.20;36.94;;
71028;Laerm;61353;52.260;4.572;2022-11-21T00:08:09;31.48;29.25;44.26;;
71028;Laerm;61353;52.260;4.572;2022-11-21T00:08:20;32.95;29.85;40.84;;
71028;Laerm;61353;52.260;4.572;2022-11-21T00:08:31;31.78;30.01;39.40;;
71028;Laerm;61353;52.260;4.572;2022-11-21T00:08:41;32.41;30.28;45.70;;
71028;Laerm;61353;52.260;4.572;2022-11-21T00:08:51;32.18;30.23;43.63;;
71028;Laerm;61353;52.260;4.572;2022-11-21T00:09:04;31.77;29.68;35.64;;
71028;Laerm;61353;52.260;4.572;2022-11-21T00:09:14;31.24;29.42;36.49;;
71028;Laerm;61353;52.260;4.572;2022-11-21T00:09:24;31.76;30.03;37.62;;
71028;Laerm;61353;52.260;4.572;2022-11-21T00:09:34;32.04;30.17;37.58;;
71028;Laerm;61353;52.260;4.572;2022-11-21T00:09:45;34.31;30.52;45.36;;
71028;Laerm;61353;52.260;4.572;2022-11-21T00:09:56;32.29;30.13;42.75;;
71028;Laerm;61353;52.260;4.572;2022-11-21T00:10:06;32.23;30.01;35.21;;
71028;Laerm;61353;52.260;4.572;2022-11-21T00:10:16;31.77;29.81;34.25;;
71028;Laerm;61353;52.260;4.572;2022-11-21T00:10:27;31.46;29.78;35.16;;
71028;Laerm;61353;52.260;4.572;2022-11-21T00:10:39;32.00;29.99;39.25;;
71028;Laerm;61353;52.260;4.572;2022-11-21T00:10:50;31.88;29.70;36.77;;
71028;Laerm;61353;52.260;4.572;2022-11-21T00:11:00;31.72;30.15;35.84;;
71028;Laerm;61353;52.260;4.572;2022-11-21T00:11:11;31.81;29.66;38.82;;
71028;Laerm;61353;52.260;4.572;2022-11-21T00:11:24;32.15;30.36;34.95;;
71028;Laerm;61353;52.260;4.572;2022-11-21T00:11:34;32.22;30.46;36.33;;
71028;Laerm;61353;52.260;4.572;2022-11-21T00:11:45;31.90;29.77;40.30;;
71028;Laerm;61353;52.260;4.572;2022-11-21T00:11:57;32.01;29.89;38.40;;
71028;Laerm;61353;52.260;4.572;2022-11-21T00:12:07;31.74;29.64;38.73;;
71028;Laerm;61353;52.260;4.572;2022-11-21T00:12:18;33.25;30.27;37.70;;
71028;Laerm;61353;52.260;4.572;2022-11-21T00:12:28;31.86;30.05;35.97;;
71028;Laerm;61353;52.260;4.572;2022-11-21T00:12:38;31.57;30.03;39.58;;
71028;Laerm;61353;52.260;4.572;2022-11-21T00:12:55;31.29;29.68;39.51;;
71028;Laerm;61353;52.260;4.572;2022-11-21T00:13:06;31.33;29.76;34.67;;
71028;Laerm;61353;52.260;4.572;2022-11-21T00:13:17;31.33;29.80;35.94;;
71028;Laerm;61353;52.260;4.572;2022-11-21T00:13:28;32.54;30.38;40.24;;
71028;Laerm;61353;52.260;4.572;2022-11-21T00:13:38;31.66;29.55;35.28;;
71028;Laerm;61353;52.260;4.572;2022-11-21T00:13:49;31.55;29.98;35.30;;
71028;Laerm;61353;52.260;4.572;2022-11-21T00:13:59;31.46;29.49;37.77;;
71028;Laerm;61353;52.260;4.572;2022-11-21T00:14:09;31.04;29.20;34.83;;
71028;Laerm;61353;52.260;4.572;2022-11-21T00:14:19;31.44;29.72;40.53;;
71028;Laerm;61353;52.260;4.572;2022-11-21T00:14:30;31.27;29.05;36.70;;
71028;Laerm;61353;52.260;4.572;2022-11-21T00:14:40;30.65;29.21;36.32;;
71028;Laerm;61353;52.260;4.572;2022-11-21T00:14:51;30.66;29.28;39.15;;
71028;Laerm;61353;52.260;4.572;2022-11-21T00:15:01;31.01;29.59;36.09;;
71028;Laerm;61353;52.260;4.572;2022-11-21T00:15:11;30.50;28.75;34.89;;
71028;Laerm;61353;52.260;4.572;2022-11-21T00:15:22;30.77;29.11;34.96;;
71028;Laerm;61353;52.260;4.572;2022-11-21T00:15:33;31.14;29.28;40.44;;
71028;Laerm;61353;52.260;4.572;2022-11-21T00:15:44;30.98;29.14;35.28;;
71028;Laerm;61353;52.260;4.572;2022-11-21T00:16:01;31.27;29.22;37.83;;
71028;Laerm;61353;52.260;4.572;2022-11-21T00:16:16;31.00;29.24;38.95;;
71028;Laerm;61353;52.260;4.572;2022-11-21T00:16:26;30.60;28.89;35.64;;
71028;Laerm;61353;52.260;4.572;2022-11-21T00:16:36;31.10;29.04;36.74;;
71028;Laerm;61353;52.260;4.572;2022-11-21T00:16:47;31.00;29.29;34.72;;
71028;Laerm;61353;52.260;4.572;2022-11-21T00:16:57;31.22;29.07;46.13;;
71028;Laerm;61353;52.260;4.572;2022-11-21T00:17:07;30.83;29.04;38.95;;
71028;Laerm;61353;52.260;4.572;2022-11-21T00:17:18;31.32;28.69;43.38;;
71028;Laerm;61353;52.260;4.572;2022-11-21T00:17:29;31.63;29.35;37.41;;
71028;Laerm;61353;52.260;4.572;2022-11-21T00:17:39;32.86;29.53;37.31;;
71028;Laerm;61353;52.260;4.572;2022-11-21T00:17:49;30.76;29.35;36.88;;
71028;Laerm;61353;52.260;4.572;2022-11-21T00:18:03;31.11;29.20;37.25;;
71028;Laerm;61353;52.260;4.572;2022-11-21T00:18:13;31.46;28.71;37.16;;
71028;Laerm;61353;52.260;4.572;2022-11-21T00:18:24;31.97;30.11;37.82;;
71028;Laerm;61353;52.260;4.572;2022-11-21T00:18:37;31.16;29.48;36.61;;
71028;Laerm;61353;52.260;4.572;2022-11-21T00:18:47;32.02;29.48;40.62;;
71028;Laerm;61353;52.260;4.572;2022-11-21T00:18:57;31.35;29.52;35.19;;
71028;Laerm;61353;52.260;4.572;2022-11-21T00:19:07;31.63;30.21;35.51;;
71028;Laerm;61353;52.260;4.572;2022-11-21T00:19:18;33.68;29.93;39.73;;
71028;Laerm;61353;52.260;4.572;2022-11-21T00:19:28;33.10;30.34;36.36;;
71028;Laerm;61353;52.260;4.572;2022-11-21T00:19:39;31.78;30.09;43.84;;
71028;Laerm;61353;52.260;4.572;2022-11-21T00:19:49;32.22;29.88;36.80;;
71028;Laerm;61353;52.260;4.572;2022-11-21T00:19:59;35.51;31.72;39.23;;
71028;Laerm;61353;52.260;4.572;2022-11-21T00:20:10;32.91;30.93;38.58;;
71028;Laerm;61353;52.260;4.572;2022-11-21T00:20:21;32.36;30.73;35.13;;
71028;Laerm;61353;52.260;4.572;2022-11-21T00:20:34;36.12;32.06;40.34;;
71028;Laerm;61353;52.260;4.572;2022-11-21T00:20:46;61.37;31.47;69.62;;
71028;Laerm;61353;52.260;4.572;2022-11-21T00:20:56;49.76;30.35;60.08;;
71028;Laerm;61353;52.260;4.572;2022-11-21T00:21:07;33.22;29.90;38.78;;
71028;Laerm;61353;52.260;4.572;2022-11-21T00:21:21;31.94;30.04;41.90;;
71028;Laerm;61353;52.260;4.572;2022-11-21T00:21:31;32.37;29.94;39.64;;
71028;Laerm;61353;52.260;4.572;2022-11-21T00:21:42;31.85;29.65;40.27;;
71028;Laerm;61353;52.260;4.572;2022-11-21T00:21:52;32.15;29.85;38.20;;
71028;Laerm;61353;52.260;4.572;2022-11-21T00:22:02;31.62;29.96;37.77;;
71028;Laerm;61353;52.260;4.572;2022-11-21T00:22:12;31.54;30.14;34.77;;
71028;Laerm;61353;52.260;4.572;2022-11-21T00:22:23;31.32;29.21;34.99;;
71028;Laerm;61353;52.260;4.572;2022-11-21T00:22:33;31.40;29.82;36.08;;
71028;Laerm;61353;52.260;4.572;2022-11-21T00:22:46;31.04;29.24;39.27;;
71028;Laerm;61353;52.260;4.572;2022-11-21T00:22:56;30.84;29.13;37.51;;
71028;Laerm;61353;52.260;4.572;2022-11-21T00:23:07;31.09;29.42;38.58;;
71028;Laerm;61353;52.260;4.572;2022-11-21T00:23:17;31.71;29.48;47.30;;
71028;Laerm;61353;52.260;4.572;2022-11-21T00:23:27;30.93;29.45;36.04;;
71028;Laerm;61353;52.260;4.572;2022-11-21T00:23:38;31.15;29.44;35.53;;
71028;Laerm;61353;52.260;4.572;2022-11-21T00:23:48;32.73;29.77;38.02;;
71028;Laerm;61353;52.260;4.572;2022-11-21T00:24:01;31.80;29.89;37.80;;
71028;Laerm;61353;52.260;4.572;2022-11-21T00:24:11;31.13;29.34;36.60;;
71028;Laerm;61353;52.260;4.572;2022-11-21T00:24:21;31.19;29.47;35.43;;
71028;Laerm;61353;52.260;4.572;2022-11-21T00:24:32;31.58;29.47;41.74;;
71028;Laerm;61353;52.260;4.572;2022-11-21T00:24:42;30.93;29.31;37.99;;
71028;Laerm;61353;52.260;4.572;2022-11-21T00:24:52;30.76;28.93;38.15;;
71028;Laerm;61353;52.260;4.572;2022-11-21T00:25:03;30.77;29.05;37.34;;
71028;Laerm;61353;52.260;4.572;2022-11-21T00:25:13;30.97;29.45;36.06;;
71028;Laerm;61353;52.260;4.572;2022-11-21T00:25:24;30.94;29.11;35.28;;
71028;Laerm;61353;52.260;4.572;2022-11-21T00:25:34;31.02;29.17;34.23;;
71028;Laerm;61353;52.260;4.572;2022-11-21T00:25:45;30.82;29.25;37.28;;
71028;Laerm;61353;52.260;4.572;2022-11-21T00:25:57;31.04;29.28;38.36;;
71028;Laerm;61353;52.260;4.572;2022-11-21T00:26:11;31.07;29.32;36.55;;
71028;Laerm;61353;52.260;4.572;2022-11-21T00:26:21;30.68;29.18;34.91;;
71028;Laerm;61353;52.260;4.572;2022-11-21T00:26:31;30.78;28.99;35.66;;
71028;Laerm;61353;52.260;4.572;2022-11-21T00:26:44;31.10;29.09;35.71;;
71028;Laerm;61353;52.260;4.572;2022-11-21T00:26:54;30.70;29.20;38.10;;
71028;Laerm;61353;52.260;4.572;2022-11-21T00:27:05;30.82;29.22;37.87;;
71028;Laerm;61353;52.260;4.572;2022-11-21T00:27:15;31.06;29.25;37.86;;
71028;Laerm;61353;52.260;4.572;2022-11-21T00:27:25;31.42;29.71;43.26;;
71028;Laerm;61353;52.260;4.572;2022-11-21T00:27:36;31.27;29.57;36.00;;
71028;Laerm;61353;52.260;4.572;2022-11-21T00:27:46;31.06;29.50;35.98;;
71028;Laerm;61353;52.260;4.572;2022-11-21T00:27:58;30.91;29.39;35.87;;
71028;Laerm;61353;52.260;4.572;2022-11-21T00:28:09;32.61;30.01;35.72;;
71028;Laerm;61353;52.260;4.572;2022-11-21T00:28:19;32.33;30.35;37.19;;
71028;Laerm;61353;52.260;4.572;2022-11-21T00:28:29;31.49;29.61;35.26;;
71028;Laerm;61353;52.260;4.572;2022-11-21T00:28:40;31.49;29.52;36.81;;
71028;Laerm;61353;52.260;4.572;2022-11-21T00:28:52;32.80;30.35;36.98;;
71028;Laerm;61353;52.260;4.572;2022-11-21T00:29:02;32.44;29.79;38.40;;
71028;Laerm;61353;52.260;4.572;2022-11-21T00:29:13;31.89;29.98;34.85;;
71028;Laerm;61353;52.260;4.572;2022-11-21T00:29:23;32.63;30.06;42.13;;
71028;Laerm;61353;52.260;4.572;2022-11-21T00:29:33;34.01;30.66;40.56;;
71028;Laerm;61353;52.260;4.572;2022-11-21T00:29:44;34.88;30.71;40.75;;
71028;Laerm;61353;52.260;4.572;2022-11-21T00:29:54;33.85;30.45;38.81;;
71028;Laerm;61353;52.260;4.572;2022-11-21T00:30:05;33.21;30.39;38.50;;
71028;Laerm;61353;52.260;4.572;2022-11-21T00:30:15;33.04;30.22;37.61;;
71028;Laerm;61353;52.260;4.572;2022-11-21T00:30:25;32.93;29.80;36.80;;
71028;Laerm;61353;52.260;4.572;2022-11-21T00:30:38;31.74;29.72;35.83;;
71028;Laerm;61353;52.260;4.572;2022-11-21T00:30:48;31.37;29.60;33.93;;
71028;Laerm;61353;52.260;4.572;2022-11-21T00:30:59;31.68;29.74;35.51;;
71028;Laerm;61353;52.260;4.572;2022-11-21T00:31:17;31.59;29.78;43.21;;
71028;Laerm;61353;52.260;4.572;2022-11-21T00:31:27;31.65;29.59;39.81;;
71028;Laerm;61353;52.260;4.572;2022-11-21T00:31:37;31.59;29.72;40.52;;
71028;Laerm;61353;52.260;4.572;2022-11-21T00:31:48;31.50;29.81;37.62;;
71028;Laerm;61353;52.260;4.572;2022-11-21T00:31:58;31.70;29.72;35.89;;
71028;Laerm;61353;52.260;4.572;2022-11-21T00:32:08;31.60;29.96;35.19;;
71028;Laerm;61353;52.260;4.572;2022-11-21T00:32:18;32.15;29.94;47.56;;
71028;Laerm;61353;52.260;4.572;2022-11-21T00:32:29;32.32;30.12;45.58;;
71028;Laerm;61353;52.260;4.572;2022-11-21T00:32:39;31.88;30.33;35.51;;
71028;Laerm;61353;52.260;4.572;2022-11-21T00:32:50;31.97;30.17;36.98;;
71028;Laerm;61353;52.260;4.572;2022-11-21T00:33:02;31.80;29.98;34.94;;
71028;Laerm;61353;52.260;4.572;2022-11-21T00:33:13;31.81;29.81;40.98;;
71028;Laerm;61353;52.260;4.572;2022-11-21T00:33:23;31.84;29.98;37.09;;
71028;Laerm;61353;52.260;4.572;2022-11-21T00:33:34;31.56;29.96;37.16;;
71028;Laerm;61353;52.260;4.572;2022-11-21T00:33:45;32.64;30.25;37.99;;
71028;Laerm;61353;52.260;4.572;2022-11-21T00:33:55;33.10;30.43;37.33;;
71028;Laerm;61353;52.260;4.572;2022-11-21T00:34:05;36.87;31.77;46.40;;
71028;Laerm;61353;52.260;4.572;2022-11-21T00:34:15;39.30;33.94;47.73;;
71028;Laerm;61353;52.260;4.572;2022-11-21T00:34:26;40.91;35.72;47.29;;
71028;Laerm;61353;52.260;4.572;2022-11-21T00:34:36;43.21;36.62;49.57;;
71028;Laerm;61353;52.260;4.572;2022-11-21T00:34:46;41.40;35.91;47.90;;
71028;Laerm;61353;52.260;4.572;2022-11-21T00:34:56;41.07;36.09;47.79;;
71028;Laerm;61353;52.260;4.572;2022-11-21T00:35:07;37.74;33.47;42.66;;
71028;Laerm;61353;52.260;4.572;2022-11-21T00:35:17;40.25;32.96;48.07;;
71028;Laerm;61353;52.260;4.572;2022-11-21T00:35:27;35.74;30.93;41.47;;
71028;Laerm;61353;52.260;4.572;2022-11-21T00:35:39;32.26;30.03;36.25;;
71028;Laerm;61353;52.260;4.572;2022-11-21T00:35:49;31.59;29.38;39.12;;
71028;Laerm;61353;52.260;4.572;2022-11-21T00:36:09;31.52;29.61;37.40;;
71028;Laerm;61353;52.260;4.572;2022-11-21T00:36:19;31.38;29.97;36.52;;
71028;Laerm;61353;52.260;4.572;2022-11-21T00:36:29;31.52;29.69;37.72;;
71028;Laerm;61353;52.260;4.572;2022-11-21T00:36:40;31.26;29.71;36.80;;
71028;Laerm;61353;52.260;4.572;2022-11-21T00:36:53;31.51;29.58;45.53;;
71028;Laerm;61353;52.260;4.572;2022-11-21T00:37:03;31.34;29.85;35.65;;
71028;Laerm;61353;52.260;4.572;2022-11-21T00:37:14;31.76;29.89;38.77;;
71028;Laerm;61353;52.260;4.572;2022-11-21T00:37:24;31.43;29.77;39.25;;
71028;Laerm;61353;52.260;4.572;2022-11-21T00:37:34;31.84;30.07;35.79;;
71028;Laerm;61353;52.260;4.572;2022-11-21T00:37:44;32.09;30.02;39.43;;
71028;Laerm;61353;52.260;4.572;2022-11-21T00:37:57;31.93;30.02;34.77;;
71028;Laerm;61353;52.260;4.572;2022-11-21T00:38:07;32.11;30.26;36.38;;
71028;Laerm;61353;52.260;4.572;2022-11-21T00:38:18;32.52;30.17;35.45;;
71028;Laerm;61353;52.260;4.572;2022-11-21T00:38:28;34.95;30.37;42.41;;
71028;Laerm;61353;52.260;4.572;2022-11-21T00:38:38;34.77;30.92;41.15;;
71028;Laerm;61353;52.260;4.572;2022-11-21T00:38:48;33.53;30.73;38.68;;
71028;Laerm;61353;52.260;4.572;2022-11-21T00:38:59;34.12;30.02;44.64;;
71028;Laerm;61353;52.260;4.572;2022-11-21T00:39:09;32.79;30.59;38.79;;
71028;Laerm;61353;52.260;4.572;2022-11-21T00:39:19;32.86;29.22;38.59;;
71028;Laerm;61353;52.260;4.572;2022-11-21T00:39:30;32.11;29.81;36.97;;
71028;Laerm;61353;52.260;4.572;2022-11-21T00:39:40;32.25;29.64;37.01;;
71028;Laerm;61353;52.260;4.572;2022-11-21T00:39:50;31.22;29.81;33.96;;
71028;Laerm;61353;52.260;4.572;2022-11-21T00:40:00;31.61;29.81;37.19;;
71028;Laerm;61353;52.260;4.572;2022-11-21T00:40:11;31.07;29.46;34.83;;
71028;Laerm;61353;52.260;4.572;2022-11-21T00:40:21;31.15;29.65;34.16;;
71028;Laerm;61353;52.260;4.572;2022-11-21T00:40:31;31.31;29.35;39.43;;
71028;Laerm;61353;52.260;4.572;2022-11-21T00:40:42;31.20;29.44;36.70;;
71028;Laerm;61353;52.260;4.572;2022-11-21T00:40:53;31.08;29.43;37.92;;
71028;Laerm;61353;52.260;4.572;2022-11-21T00:41:03;31.03;29.54;34.85;;
71028;Laerm;61353;52.260;4.572;2022-11-21T00:41:14;30.96;28.76;37.41;;
71028;Laerm;61353;52.260;4.572;2022-11-21T00:41:24;31.26;29.65;34.16;;
71028;Laerm;61353;52.260;4.572;2022-11-21T00:41:37;31.32;29.71;41.63;;
71028;Laerm;61353;52.260;4.572;2022-11-21T00:41:47;31.34;29.44;38.41;;
71028;Laerm;61353;52.260;4.572;2022-11-21T00:41:57;32.13;29.29;35.64;;
71028;Laerm;61353;52.260;4.572;2022-11-21T00:42:07;31.62;29.35;35.27;;
71028;Laerm;61353;52.260;4.572;2022-11-21T00:42:18;31.14;29.47;36.41;;
71028;Laerm;61353;52.260;4.572;2022-11-21T00:42:28;31.56;29.80;42.63;;
71028;Laerm;61353;52.260;4.572;2022-11-21T00:42:38;31.17;29.68;35.29;;
71028;Laerm;61353;52.260;4.572;2022-11-21T00:42:49;31.60;29.48;34.33;;
71028;Laerm;61353;52.260;4.572;2022-11-21T00:42:59;31.63;29.48;39.23;;
71028;Laerm;61353;52.260;4.572;2022-11-21T00:43:09;32.79;30.26;36.04;;
71028;Laerm;61353;52.260;4.572;2022-11-21T00:43:20;36.99;30.57;44.60;;
71028;Laerm;61353;52.260;4.572;2022-11-21T00:43:30;42.52;36.91;47.63;;
71028;Laerm;61353;52.260;4.572;2022-11-21T00:43:44;42.52;37.01;48.96;;
71028;Laerm;61353;52.260;4.572;2022-11-21T00:43:54;41.41;35.08;47.22;;
71028;Laerm;61353;52.260;4.572;2022-11-21T00:44:07;41.90;35.62;47.42;;
71028;Laerm;61353;52.260;4.572;2022-11-21T00:44:17;39.63;33.05;45.49;;
71028;Laerm;61353;52.260;4.572;2022-11-21T00:44:29;37.14;32.17;41.28;;
71028;Laerm;61353;52.260;4.572;2022-11-21T00:44:40;33.42;30.46;39.13;;
71028;Laerm;61353;52.260;4.572;2022-11-21T00:44:53;31.35;29.65;38.95;;
71028;Laerm;61353;52.260;4.572;2022-11-21T00:45:03;31.03;29.49;37.32;;
71028;Laerm;61353;52.260;4.572;2022-11-21T00:45:13;30.99;29.47;37.87;;
71028;Laerm;61353;52.260;4.572;2022-11-21T00:45:24;32.21;29.24;38.87;;
71028;Laerm;61353;52.260;4.572;2022-11-21T00:45:36;31.54;29.59;38.24;;
71028;Laerm;61353;52.260;4.572;2022-11-21T00:45:49;31.07;28.66;41.81;;
71028;Laerm;61353;52.260;4.572;2022-11-21T00:46:00;31.36;29.49;37.36;;
71028;Laerm;61353;52.260;4.572;2022-11-21T00:46:11;32.47;29.96;36.52;;
71028;Laerm;61353;52.260;4.572;2022-11-21T00:46:21;31.76;29.68;40.68;;
71028;Laerm;61353;52.260;4.572;2022-11-21T00:46:32;31.02;28.72;36.94;;
71028;Laerm;61353;52.260;4.572;2022-11-21T00:46:42;31.12;29.47;39.97;;
71028;Laerm;61353;52.260;4.572;2022-11-21T00:46:55;31.03;29.54;37.54;;
71028;Laerm;61353;52.260;4.572;2022-11-21T00:47:06;31.49;29.71;37.56;;
71028;Laerm;61353;52.260;4.572;2022-11-21T00:47:16;32.23;30.17;35.57;;
71028;Laerm;61353;52.260;4.572;2022-11-21T00:47:26;34.55;29.74;45.25;;
71028;Laerm;61353;52.260;4.572;2022-11-21T00:47:37;33.87;30.70;41.97;;
71028;Laerm;61353;52.260;4.572;2022-11-21T00:47:47;32.99;30.10;36.98;;
71028;Laerm;61353;52.260;4.572;2022-11-21T00:47:59;31.29;29.47;37.16;;
71028;Laerm;61353;52.260;4.572;2022-11-21T00:48:10;31.85;30.11;44.28;;
71028;Laerm;61353;52.260;4.572;2022-11-21T00:48:22;31.37;29.30;38.03;;
71028;Laerm;61353;52.260;4.572;2022-11-21T00:48:35;31.50;29.64;34.24;;
71028;Laerm;61353;52.260;4.572;2022-11-21T00:48:45;31.35;29.95;35.44;;
71028;Laerm;61353;52.260;4.572;2022-11-21T00:48:55;31.31;29.46;39.74;;
71028;Laerm;61353;52.260;4.572;2022-11-21T00:49:06;30.98;29.36;34.23;;
71028;Laerm;61353;52.260;4.572;2022-11-21T00:49:18;30.56;29.11;33.16;;
71028;Laerm;61353;52.260;4.572;2022-11-21T00:49:28;31.02;29.16;37.40;;
71028;Laerm;61353;52.260;4.572;2022-11-21T00:49:39;30.98;29.26;41.16;;
71028;Laerm;61353;52.260;4.572;2022-11-21T00:49:52;30.75;29.04;38.33;;
71028;Laerm;61353;52.260;4.572;2022-11-21T00:50:02;30.65;29.25;35.35;;
71028;Laerm;61353;52.260;4.572;2022-11-21T00:50:13;30.64;29.00;38.44;;
71028;Laerm;61353;52.260;4.572;2022-11-21T00:50:25;30.76;28.69;44.03;;
71028;Laerm;61353;52.260;4.572;2022-11-21T00:50:38;30.57;28.74;36.94;;
71028;Laerm;61353;52.260;4.572;2022-11-21T00:50:48;30.37;28.87;35.53;;
71028;Laerm;61353;52.260;4.572;2022-11-21T00:51:00;30.45;29.07;34.67;;
71028;Laerm;61353;52.260;4.572;2022-11-21T00:51:11;30.43;28.65;40.53;;
71028;Laerm;61353;52.260;4.572;2022-11-21T00:51:21;30.55;29.00;39.38;;
71028;Laerm;61353;52.260;4.572;2022-11-21T00:51:31;30.32;28.94;34.32;;
71028;Laerm;61353;52.260;4.572;2022-11-21T00:51:41;30.66;28.85;36.10;;
71028;Laerm;61353;52.260;4.572;2022-11-21T00:51:52;30.55;28.98;33.93;;
71028;Laerm;61353;52.260;4.572;2022-11-21T00:52:02;30.21;28.87;33.42;;
71028;Laerm;61353;52.260;4.572;2022-11-21T00:52:15;30.42;28.86;34.38;;
71028;Laerm;61353;52.260;4.572;2022-11-21T00:52:25;30.54;28.94;37.88;;
71028;Laerm;61353;52.260;4.572;2022-11-21T00:52:35;31.22;29.31;43.90;;
71028;Laerm;61353;52.260;4.572;2022-11-21T00:52:46;30.56;29.12;38.96;;
71028;Laerm;61353;52.260;4.572;2022-11-21T00:52:56;31.18;29.23;37.52;;
71028;Laerm;61353;52.260;4.572;2022-11-21T00:53:06;30.82;29.03;34.50;;
71028;Laerm;61353;52.260;4.572;2022-11-21T00:53:17;30.68;28.90;34.37;;
71028;Laerm;61353;52.260;4.572;2022-11-21T00:53:27;30.79;29.38;34.11;;
71028;Laerm;61353;52.260;4.572;2022-11-21T00:53:37;30.51;28.77;33.82;;
71028;Laerm;61353;52.260;4.572;2022-11-21T00:53:48;30.58;29.04;38.46;;
71028;Laerm;61353;52.260;4.572;2022-11-21T00:53:58;30.54;28.92;37.70;;
71028;Laerm;61353;52.260;4.572;2022-11-21T00:54:09;30.59;29.14;35.73;;
71028;Laerm;61353;52.260;4.572;2022-11-21T00:54:19;30.46;29.05;38.85;;
71028;Laerm;61353;52.260;4.572;2022-11-21T00:54:29;30.38;29.11;33.59;;
71028;Laerm;61353;52.260;4.572;2022-11-21T00:54:39;30.42;28.99;38.45;;
71028;Laerm;61353;52.260;4.572;2022-11-21T00:54:50;30.14;28.56;34.14;;
71028;Laerm;61353;52.260;4.572;2022-11-21T00:55:00;30.30;28.80;35.38;;
71028;Laerm;61353;52.260;4.572;2022-11-21T00:55:10;30.43;28.74;37.20;;
71028;Laerm;61353;52.260;4.572;2022-11-21T00:55:21;30.50;28.88;35.18;;
71028;Laerm;61353;52.260;4.572;2022-11-21T00:55:31;30.50;29.09;35.09;;
71028;Laerm;61353;52.260;4.572;2022-11-21T00:55:41;30.60;28.98;36.04;;
71028;Laerm;61353;52.260;4.572;2022-11-21T00:55:51;30.62;28.83;41.09;;
71028;Laerm;61353;52.260;4.572;2022-11-21T00:56:02;30.34;28.44;36.34;;
71028;Laerm;61353;52.260;4.572;2022-11-21T00:56:12;30.44;28.96;34.08;;
71028;Laerm;61353;52.260;4.572;2022-11-21T00:56:22;30.24;28.60;36.35;;
71028;Laerm;61353;52.260;4.572;2022-11-21T00:56:33;30.49;29.00;41.14;;
71028;Laerm;61353;52.260;4.572;2022-11-21T00:56:43;30.48;28.92;40.58;;
71028;Laerm;61353;52.260;4.572;2022-11-21T00:56:53;30.27;28.89;36.18;;
71028;Laerm;61353;52.260;4.572;2022-11-21T00:57:05;30.36;28.63;39.76;;
71028;Laerm;61353;52.260;4.572;2022-11-21T00:57:16;30.19;28.60;34.89;;
71028;Laerm;61353;52.260;4.572;2022-11-21T00:57:26;30.32;28.30;36.59;;
71028;Laerm;61353;52.260;4.572;2022-11-21T00:57:36;30.62;28.59;41.12;;
71028;Laerm;61353;52.260;4.572;2022-11-21T00:57:47;30.12;28.87;35.27;;
71028;Laerm;61353;52.260;4.572;2022-11-21T00:57:57;30.09;28.48;36.82;;
71028;Laerm;61353;52.260;4.572;2022-11-21T00:58:09;30.13;28.55;40.14;;
71028;Laerm;61353;52.260;4.572;2022-11-21T00:58:20;30.24;28.73;39.94;;
71028;Laerm;61353;52.260;4.572;2022-11-21T00:58:32;30.19;28.75;37.09;;
71028;Laerm;61353;52.260;4.572;2022-11-21T00:58:45;30.30;28.68;38.00;;
71028;Laerm;61353;52.260;4.572;2022-11-21T00:58:55;30.70;28.69;44.93;;
71028;Laerm;61353;52.260;4.572;2022-11-21T00:59:06;30.24;28.75;34.77;;
71028;Laerm;61353;52.260;4.572;2022-11-21T00:59:16;30.30;28.74;35.62;;
71028;Laerm;61353;52.260;4.572;2022-11-21T00:59:26;30.32;28.80;39.10;;
71028;Laerm;61353;52.260;4.572;2022-11-21T00:59:37;30.40;28.53;36.96;;
71028;Laerm;61353;52.260;4.572;2022-11-21T00:59:47;30.29;28.66;40.32;;
71028;Laerm;61353;52.260;4.572;2022-11-21T00:59:57;30.19;28.65;33.32;;
71028;Laerm;61353;52.260;4.572;2022-11-21T01:00:08;30.60;28.89;37.46;;
71028;Laerm;61353;52.260;4.572;2022-11-21T01:00:18;30.87;29.43;34.15;;
71028;Laerm;61353;52.260;4.572;2022-11-21T01:00:28;30.78;29.11;35.84;;
71028;Laerm;61353;52.260;4.572;2022-11-21T01:00:39;30.84;29.45;34.20;;
71028;Laerm;61353;52.260;4.572;2022-11-21T01:00:49;31.10;29.53;39.81;;